BLY7464 EGGW-EGPH
Flight info
| Callsign | BLY7464 |
|---|---|
| Flight time | 0h 51m |
| Altitude | 32000 |
| Route | OLNEY T420 TNT UN57 POL UN601 RIBEL DCT INPIP |
| Aircraft | B738/M-SDE2E3FGHIRWXY/LB1 |
Departure
| Time | 2026-04-22 21:07 |
|---|---|
| Airport | London Luton Airport (EGGW) |
Arrival
| Time | 2026-04-22 21:59 |
|---|---|
| Airport | Edinburgh Airport (EGPH) |
| Time | Latitude | Longitude | Altitude | Speed | Heading |
|---|---|---|---|---|---|
| 2026-04-22 20:47 | 51.87929 | -0.37928 | 535 ft | 0 kts | 99° |
| 2026-04-22 20:58 | 51.87933 | -0.37963 | 529 ft | 4 kts | 111° |
| 2026-04-22 20:58 | 51.87946 | -0.37996 | 536 ft | 4 kts | 159° |
| 2026-04-22 20:58 | 51.87958 | -0.37998 | 536 ft | 0 kts | 204° |
| 2026-04-22 21:01 | 51.87954 | -0.38000 | 536 ft | 1 kts | 202° |
| 2026-04-22 21:02 | 51.87938 | -0.38008 | 536 ft | 4 kts | 193° |
| 2026-04-22 21:02 | 51.87906 | -0.38011 | 536 ft | 6 kts | 175° |
| 2026-04-22 21:02 | 51.87861 | -0.37993 | 536 ft | 8 kts | 154° |
| 2026-04-22 21:02 | 51.87814 | -0.37934 | 536 ft | 9 kts | 136° |
| 2026-04-22 21:03 | 51.87776 | -0.37837 | 535 ft | 11 kts | 120° |
| 2026-04-22 21:03 | 51.87744 | -0.37716 | 535 ft | 12 kts | 110° |
| 2026-04-22 21:03 | 51.87709 | -0.37582 | 535 ft | 14 kts | 114° |
| 2026-04-22 21:03 | 51.87645 | -0.37472 | 535 ft | 15 kts | 158° |
| 2026-04-22 21:04 | 51.87541 | -0.37472 | 535 ft | 16 kts | 201° |
| 2026-04-22 21:04 | 51.87487 | -0.37622 | 535 ft | 17 kts | 254° |
| 2026-04-22 21:04 | 51.87453 | -0.37812 | 536 ft | 18 kts | 254° |
| 2026-04-22 21:04 | 51.87424 | -0.37973 | 536 ft | 11 kts | 248° |
| 2026-04-22 21:05 | 51.87373 | -0.38062 | 536 ft | 6 kts | 209° |
| 2026-04-22 21:05 | 51.87363 | -0.38070 | 537 ft | 0 kts | 206° |
| 2026-04-22 21:06 | 51.87355 | -0.38076 | 537 ft | 2 kts | 206° |
| 2026-04-22 21:06 | 51.87335 | -0.38092 | 537 ft | 4 kts | 206° |
| 2026-04-22 21:06 | 51.87300 | -0.38109 | 536 ft | 6 kts | 186° |
| 2026-04-22 21:06 | 51.87257 | -0.38083 | 537 ft | 7 kts | 125° |
| 2026-04-22 21:07 | 51.87261 | -0.38002 | 537 ft | 10 kts | 75° |
| 2026-04-22 21:07 | 51.87346 | -0.37519 | 535 ft | 88 kts | 74° |
| 2026-04-22 21:07 | 51.87586 | -0.36135 | 559 ft | 163 kts | 74° |
| 2026-04-22 21:07 | 51.87948 | -0.34207 | 1311 ft | 186 kts | 73° |
| 2026-04-22 21:08 | 51.88294 | -0.32341 | 2400 ft | 153 kts | 78° |
| 2026-04-22 21:08 | 51.88561 | -0.30842 | 2985 ft | 127 kts | 80° |
| 2026-04-22 21:08 | 51.88791 | -0.29527 | 3191 ft | 124 kts | 81° |
| 2026-04-22 21:08 | 51.89070 | -0.28008 | 3444 ft | 155 kts | 68° |
| 2026-04-22 21:09 | 51.89950 | -0.26825 | 4011 ft | 180 kts | 22° |
| 2026-04-22 21:09 | 51.91241 | -0.26873 | 4700 ft | 198 kts | 342° |
| 2026-04-22 21:09 | 51.92384 | -0.28327 | 5065 ft | 227 kts | 301° |
| 2026-04-22 21:09 | 51.92750 | -0.30886 | 5275 ft | 246 kts | 264° |
| 2026-04-22 21:10 | 51.92621 | -0.33738 | 5712 ft | 259 kts | 264° |
| 2026-04-22 21:10 | 51.92539 | -0.36712 | 5975 ft | 274 kts | 266° |
| 2026-04-22 21:10 | 51.92808 | -0.39836 | 5991 ft | 289 kts | 294° |
| 2026-04-22 21:10 | 51.94041 | -0.42421 | 6051 ft | 295 kts | 316° |
| 2026-04-22 21:11 | 51.95513 | -0.44725 | 6046 ft | 290 kts | 316° |
| 2026-04-22 21:11 | 51.96933 | -0.46990 | 6270 ft | 286 kts | 315° |
| 2026-04-22 21:11 | 51.98345 | -0.49296 | 6947 ft | 291 kts | 315° |
| 2026-04-22 21:11 | 51.99774 | -0.51656 | 7753 ft | 294 kts | 315° |
| 2026-04-22 21:12 | 52.01209 | -0.54035 | 8593 ft | 296 kts | 314° |
| 2026-04-22 21:12 | 52.02659 | -0.56446 | 9400 ft | 300 kts | 314° |
| 2026-04-22 21:12 | 52.04105 | -0.58855 | 10204 ft | 303 kts | 314° |
| 2026-04-22 21:12 | 52.05585 | -0.61324 | 10934 ft | 307 kts | 314° |
| 2026-04-22 21:13 | 52.07087 | -0.63833 | 11652 ft | 311 kts | 314° |
| 2026-04-22 21:13 | 52.08607 | -0.66373 | 12365 ft | 316 kts | 314° |
| 2026-04-22 21:13 | 52.10150 | -0.68955 | 13094 ft | 320 kts | 314° |
| 2026-04-22 21:13 | 52.11714 | -0.71575 | 13825 ft | 324 kts | 313° |
| 2026-04-22 21:14 | 52.13360 | -0.74117 | 14502 ft | 329 kts | 323° |
| 2026-04-22 21:14 | 52.15279 | -0.76148 | 15244 ft | 329 kts | 330° |
| 2026-04-22 21:14 | 52.17272 | -0.78000 | 15985 ft | 329 kts | 331° |
| 2026-04-22 21:14 | 52.19264 | -0.79859 | 16708 ft | 331 kts | 330° |
| 2026-04-22 21:15 | 52.21256 | -0.81783 | 17408 ft | 333 kts | 329° |
| 2026-04-22 21:15 | 52.23221 | -0.83720 | 18107 ft | 335 kts | 329° |
| 2026-04-22 21:15 | 52.25227 | -0.85714 | 18790 ft | 338 kts | 329° |
| 2026-04-22 21:15 | 52.27276 | -0.87748 | 19135 ft | 350 kts | 329° |
| 2026-04-22 21:16 | 52.29388 | -0.89841 | 19478 ft | 361 kts | 329° |
| 2026-04-22 21:16 | 52.31586 | -0.92021 | 19616 ft | 379 kts | 329° |
| 2026-04-22 21:16 | 52.33886 | -0.94305 | 19793 ft | 394 kts | 329° |
| 2026-04-22 21:16 | 52.36266 | -0.96672 | 20123 ft | 403 kts | 329° |
| 2026-04-22 21:17 | 52.38664 | -0.99063 | 20770 ft | 403 kts | 330° |
| 2026-04-22 21:17 | 52.41016 | -1.01410 | 21540 ft | 398 kts | 329° |
| 2026-04-22 21:17 | 52.43414 | -1.03807 | 22132 ft | 399 kts | 330° |
| 2026-04-22 21:17 | 52.45787 | -1.06177 | 22635 ft | 402 kts | 330° |
| 2026-04-22 21:18 | 52.48187 | -1.08581 | 23153 ft | 404 kts | 330° |
| 2026-04-22 21:18 | 52.50555 | -1.10964 | 23698 ft | 406 kts | 329° |
| 2026-04-22 21:18 | 52.52961 | -1.13405 | 24165 ft | 407 kts | 329° |
| 2026-04-22 21:18 | 52.55367 | -1.15853 | 24628 ft | 408 kts | 329° |
| 2026-04-22 21:19 | 52.57794 | -1.18316 | 24990 ft | 411 kts | 329° |
| 2026-04-22 21:19 | 52.60243 | -1.20795 | 25346 ft | 414 kts | 329° |
| 2026-04-22 21:19 | 52.62694 | -1.23277 | 25806 ft | 414 kts | 329° |
| 2026-04-22 21:19 | 52.65151 | -1.25767 | 26255 ft | 415 kts | 328° |
| 2026-04-22 21:20 | 52.67618 | -1.28272 | 26631 ft | 417 kts | 328° |
| 2026-04-22 21:20 | 52.70102 | -1.30799 | 26993 ft | 420 kts | 328° |
| 2026-04-22 21:20 | 52.72588 | -1.33328 | 27479 ft | 419 kts | 328° |
| 2026-04-22 21:20 | 52.75064 | -1.35848 | 28314 ft | 414 kts | 328° |
| 2026-04-22 21:21 | 52.77496 | -1.38325 | 28987 ft | 409 kts | 328° |
| 2026-04-22 21:21 | 52.79905 | -1.40781 | 29601 ft | 405 kts | 328° |
| 2026-04-22 21:21 | 52.82303 | -1.43231 | 30114 ft | 404 kts | 327° |
| 2026-04-22 21:21 | 52.84692 | -1.45674 | 30609 ft | 403 kts | 327° |
| 2026-04-22 21:22 | 52.87063 | -1.48104 | 31041 ft | 401 kts | 327° |
| 2026-04-22 21:22 | 52.89430 | -1.50532 | 31447 ft | 399 kts | 327° |
| 2026-04-22 21:22 | 52.91768 | -1.52932 | 31741 ft | 401 kts | 327° |
| 2026-04-22 21:22 | 52.94157 | -1.55389 | 31957 ft | 405 kts | 327° |
| 2026-04-22 21:23 | 52.96555 | -1.57860 | 32294 ft | 405 kts | 327° |
| 2026-04-22 21:23 | 52.98952 | -1.60333 | 32440 ft | 408 kts | 327° |
| 2026-04-22 21:23 | 53.03774 | -1.65312 | 32435 ft | 404 kts | 327° |
| 2026-04-22 21:24 | 53.08796 | -1.69241 | 32468 ft | 402 kts | 338° |
| 2026-04-22 21:24 | 53.14068 | -1.72432 | 32450 ft | 404 kts | 338° |
| 2026-04-22 21:25 | 53.19373 | -1.75665 | 32457 ft | 406 kts | 338° |
| 2026-04-22 21:25 | 53.24686 | -1.78950 | 32463 ft | 407 kts | 338° |
| 2026-04-22 21:26 | 53.30023 | -1.82276 | 32477 ft | 415 kts | 338° |
| 2026-04-22 21:26 | 53.35512 | -1.85711 | 32469 ft | 427 kts | 338° |
| 2026-04-22 21:27 | 53.41113 | -1.89222 | 32447 ft | 434 kts | 338° |
| 2026-04-22 21:27 | 53.46782 | -1.92785 | 32457 ft | 435 kts | 338° |
| 2026-04-22 21:28 | 53.52450 | -1.96358 | 32469 ft | 435 kts | 338° |
| 2026-04-22 21:28 | 53.58117 | -1.99942 | 32476 ft | 434 kts | 338° |
| 2026-04-22 21:29 | 53.63762 | -2.03522 | 32470 ft | 432 kts | 338° |
| 2026-04-22 21:29 | 53.69384 | -2.07099 | 32463 ft | 431 kts | 338° |
| 2026-04-22 21:30 | 53.74995 | -2.10682 | 32466 ft | 430 kts | 336° |
| 2026-04-22 21:30 | 53.80546 | -2.14498 | 32471 ft | 430 kts | 336° |
| 2026-04-22 21:31 | 53.86099 | -2.18361 | 32467 ft | 432 kts | 336° |
| 2026-04-22 21:31 | 53.91643 | -2.22164 | 32475 ft | 433 kts | 336° |
| 2026-04-22 21:32 | 53.97238 | -2.25995 | 32473 ft | 434 kts | 335° |
| 2026-04-22 21:32 | 54.02859 | -2.29864 | 32484 ft | 436 kts | 336° |
| 2026-04-22 21:33 | 54.08491 | -2.33747 | 32476 ft | 437 kts | 336° |
| 2026-04-22 21:33 | 54.14130 | -2.37644 | 32473 ft | 438 kts | 336° |
| 2026-04-22 21:34 | 54.18830 | -2.40903 | 32483 ft | 438 kts | 336° |
| 2026-04-22 21:34 | 54.24624 | -2.44931 | 32474 ft | 438 kts | 336° |
| 2026-04-22 21:35 | 54.30279 | -2.48874 | 32491 ft | 438 kts | 336° |
| 2026-04-22 21:35 | 54.35924 | -2.52823 | 32482 ft | 436 kts | 336° |
| 2026-04-22 21:36 | 54.38686 | -2.54756 | 32461 ft | 421 kts | 336° |
| 2026-04-22 21:36 | 54.41368 | -2.56636 | 32474 ft | 413 kts | 336° |
| 2026-04-22 21:36 | 54.46726 | -2.60409 | 32495 ft | 423 kts | 335° |
| 2026-04-22 21:37 | 54.52250 | -2.64313 | 32508 ft | 435 kts | 335° |
| 2026-04-22 21:37 | 54.57865 | -2.68287 | 32497 ft | 440 kts | 335° |
| 2026-04-22 21:38 | 54.63555 | -2.72322 | 32509 ft | 442 kts | 335° |
| 2026-04-22 21:38 | 54.69136 | -2.76291 | 32196 ft | 424 kts | 335° |
| 2026-04-22 21:39 | 54.71856 | -2.78230 | 31781 ft | 421 kts | 335° |
| 2026-04-22 21:39 | 54.74558 | -2.80163 | 31231 ft | 421 kts | 335° |
| 2026-04-22 21:39 | 54.77276 | -2.82111 | 30521 ft | 424 kts | 335° |
| 2026-04-22 21:39 | 54.80017 | -2.84078 | 29713 ft | 428 kts | 335° |
| 2026-04-22 21:40 | 54.82760 | -2.86046 | 29136 ft | 426 kts | 335° |
| 2026-04-22 21:40 | 54.85489 | -2.88006 | 28564 ft | 424 kts | 335° |
| 2026-04-22 21:40 | 54.88212 | -2.89965 | 27942 ft | 423 kts | 335° |
| 2026-04-22 21:40 | 54.90939 | -2.91936 | 27182 ft | 426 kts | 335° |
| 2026-04-22 21:41 | 54.93668 | -2.93915 | 26815 ft | 421 kts | 335° |
| 2026-04-22 21:41 | 54.96373 | -2.95878 | 26706 ft | 425 kts | 335° |
| 2026-04-22 21:41 | 54.99123 | -2.97880 | 26596 ft | 432 kts | 335° |
| 2026-04-22 21:41 | 55.01908 | -2.99910 | 26515 ft | 432 kts | 335° |
| 2026-04-22 21:42 | 55.04630 | -3.01895 | 26431 ft | 426 kts | 336° |
| 2026-04-22 21:42 | 55.07331 | -3.03863 | 26300 ft | 414 kts | 335° |
| 2026-04-22 21:42 | 55.09948 | -3.05774 | 26220 ft | 401 kts | 335° |
| 2026-04-22 21:42 | 55.12496 | -3.07640 | 25976 ft | 394 kts | 335° |
| 2026-04-22 21:43 | 55.15022 | -3.09493 | 25536 ft | 392 kts | 335° |
| 2026-04-22 21:43 | 55.16693 | -3.10719 | 25180 ft | 394 kts | 335° |
| 2026-04-22 21:43 | 55.19234 | -3.12584 | 24595 ft | 397 kts | 336° |
| 2026-04-22 21:43 | 55.21777 | -3.14449 | 24242 ft | 394 kts | 336° |
| 2026-04-22 21:44 | 55.24276 | -3.16284 | 23967 ft | 384 kts | 336° |
| 2026-04-22 21:44 | 55.26709 | -3.18075 | 23648 ft | 371 kts | 336° |
| 2026-04-22 21:44 | 55.29048 | -3.19742 | 23406 ft | 358 kts | 341° |
| 2026-04-22 21:44 | 55.31504 | -3.20309 | 22762 ft | 358 kts | 3° |
| 2026-04-22 21:45 | 55.33957 | -3.19973 | 22085 ft | 359 kts | 5° |
| 2026-04-22 21:45 | 55.36452 | -3.19545 | 21272 ft | 363 kts | 6° |
| 2026-04-22 21:45 | 55.39000 | -3.19094 | 20399 ft | 370 kts | 6° |
| 2026-04-22 21:45 | 55.41578 | -3.18650 | 19560 ft | 374 kts | 6° |
| 2026-04-22 21:46 | 55.44187 | -3.18215 | 18692 ft | 379 kts | 6° |
| 2026-04-22 21:46 | 55.46853 | -3.17783 | 17617 ft | 385 kts | 5° |
| 2026-04-22 21:46 | 55.49542 | -3.17355 | 16598 ft | 389 kts | 5° |
| 2026-04-22 21:46 | 55.52243 | -3.16929 | 15611 ft | 391 kts | 5° |
| 2026-04-22 21:47 | 55.54960 | -3.16503 | 14640 ft | 392 kts | 5° |
| 2026-04-22 21:47 | 55.57681 | -3.16075 | 13609 ft | 392 kts | 5° |
| 2026-04-22 21:47 | 55.60404 | -3.15646 | 12563 ft | 391 kts | 6° |
| 2026-04-22 21:47 | 55.63078 | -3.15224 | 11572 ft | 390 kts | 6° |
| 2026-04-22 21:48 | 55.65779 | -3.14822 | 10598 ft | 388 kts | 3° |
| 2026-04-22 21:48 | 55.68445 | -3.15426 | 9526 ft | 387 kts | 340° |
| 2026-04-22 21:48 | 55.70768 | -3.17746 | 8514 ft | 383 kts | 319° |
| 2026-04-22 21:48 | 55.72498 | -3.21189 | 8133 ft | 362 kts | 303° |
| 2026-04-22 21:49 | 55.73570 | -3.25066 | 7802 ft | 341 kts | 286° |
| 2026-04-22 21:49 | 55.74216 | -3.29006 | 7501 ft | 325 kts | 283° |
| 2026-04-22 21:49 | 55.74785 | -3.32759 | 7202 ft | 312 kts | 283° |
| 2026-04-22 21:49 | 55.75336 | -3.36423 | 6824 ft | 303 kts | 283° |
| 2026-04-22 21:50 | 55.75877 | -3.39991 | 6437 ft | 296 kts | 283° |
| 2026-04-22 21:50 | 55.76412 | -3.43484 | 6049 ft | 290 kts | 283° |
| 2026-04-22 21:50 | 55.76940 | -3.46904 | 5664 ft | 284 kts | 283° |
| 2026-04-22 21:50 | 55.77459 | -3.50264 | 5270 ft | 279 kts | 283° |
| 2026-04-22 21:51 | 55.77972 | -3.53567 | 4880 ft | 275 kts | 283° |
| 2026-04-22 21:51 | 55.78476 | -3.56819 | 4492 ft | 271 kts | 283° |
| 2026-04-22 21:51 | 55.78972 | -3.60012 | 4183 ft | 264 kts | 283° |
| 2026-04-22 21:52 | 55.79923 | -3.66168 | 3612 ft | 252 kts | 283° |
| 2026-04-22 21:52 | 55.80440 | -3.69081 | 3468 ft | 240 kts | 297° |
| 2026-04-22 21:52 | 55.81560 | -3.70994 | 3463 ft | 215 kts | 343° |
| 2026-04-22 21:52 | 55.82923 | -3.71019 | 3490 ft | 191 kts | 31° |
| 2026-04-22 21:53 | 55.83831 | -3.69425 | 3515 ft | 184 kts | 64° |
| 2026-04-22 21:53 | 55.84554 | -3.67560 | 3487 ft | 180 kts | 56° |
| 2026-04-22 21:53 | 55.85257 | -3.65810 | 3477 ft | 166 kts | 62° |
| 2026-04-22 21:53 | 55.85881 | -3.64147 | 3450 ft | 162 kts | 62° |
| 2026-04-22 21:54 | 55.86488 | -3.62459 | 3292 ft | 163 kts | 63° |
| 2026-04-22 21:54 | 55.87079 | -3.60736 | 3077 ft | 162 kts | 63° |
| 2026-04-22 21:54 | 55.87652 | -3.59044 | 2867 ft | 157 kts | 63° |
| 2026-04-22 21:54 | 55.88203 | -3.57408 | 2632 ft | 150 kts | 63° |
| 2026-04-22 21:55 | 55.88732 | -3.55831 | 2444 ft | 148 kts | 62° |
| 2026-04-22 21:55 | 55.89257 | -3.54271 | 2263 ft | 142 kts | 62° |
| 2026-04-22 21:55 | 55.89748 | -3.52816 | 2040 ft | 130 kts | 62° |
| 2026-04-22 21:55 | 55.90200 | -3.51472 | 1847 ft | 123 kts | 62° |
| 2026-04-22 21:56 | 55.90639 | -3.50164 | 1724 ft | 123 kts | 62° |
| 2026-04-22 21:56 | 55.91079 | -3.48858 | 1527 ft | 121 kts | 62° |
| 2026-04-22 21:56 | 55.91506 | -3.47591 | 1352 ft | 120 kts | 62° |
| 2026-04-22 21:56 | 55.91937 | -3.46312 | 1170 ft | 120 kts | 61° |
| 2026-04-22 21:57 | 55.92363 | -3.45048 | 988 ft | 117 kts | 60° |
| 2026-04-22 21:57 | 55.92776 | -3.43825 | 849 ft | 114 kts | 61° |
| 2026-04-22 21:57 | 55.93196 | -3.42581 | 696 ft | 119 kts | 60° |
| 2026-04-22 21:57 | 55.93618 | -3.41330 | 476 ft | 114 kts | 61° |
| 2026-04-22 21:58 | 55.94026 | -3.40129 | 369 ft | 115 kts | 60° |
| 2026-04-22 21:58 | 55.94454 | -3.38858 | 204 ft | 121 kts | 60° |
| 2026-04-22 21:58 | 55.94876 | -3.37606 | 113 ft | 112 kts | 61° |
| 2026-04-22 21:58 | 55.95196 | -3.36668 | 107 ft | 52 kts | 58° |
| 2026-04-22 21:59 | 55.95248 | -3.36413 | 100 ft | 15 kts | 126° |
| 2026-04-22 21:59 | 55.95187 | -3.36339 | 101 ft | 8 kts | 148° |
| 2026-04-22 21:59 | 55.95135 | -3.36316 | 103 ft | 8 kts | 182° |
| 2026-04-22 21:59 | 55.95094 | -3.36372 | 105 ft | 7 kts | 217° |
| 2026-04-22 22:00 | 55.95045 | -3.36388 | 106 ft | 7 kts | 176° |
| 2026-04-22 22:00 | 55.95009 | -3.36343 | 105 ft | 6 kts | 131° |
| 2026-04-22 22:00 | 55.94979 | -3.36302 | 106 ft | 4 kts | 146° |
| 2026-04-22 22:00 | 55.94976 | -3.36298 | 106 ft | 0 kts | 147° |